createdAt,value
2017-05-08T00:00:28.279Z,0
2017-05-08T00:01:28.300Z,0
2017-05-08T00:02:28.352Z,0
2017-05-08T00:03:28.683Z,0
2017-05-08T00:04:28.737Z,0
2017-05-08T00:05:28.446Z,0
2017-05-08T00:06:28.803Z,0
2017-05-08T00:07:28.530Z,0
2017-05-08T00:08:28.865Z,0
2017-05-08T00:09:29.211Z,0
2017-05-08T00:10:28.951Z,0
2017-05-08T00:11:28.884Z,0
2017-05-08T00:12:28.709Z,0
2017-05-08T00:13:28.738Z,0
2017-05-08T00:14:29.097Z,0
2017-05-08T00:15:28.805Z,0
2017-05-08T00:16:29.169Z,0
2017-05-08T00:17:28.875Z,0
2017-05-08T00:18:29.741Z,0
2017-05-08T00:19:29.266Z,0
2017-05-08T00:20:28.981Z,0
2017-05-08T00:21:29.031Z,0
2017-05-08T00:22:29.070Z,0
2017-05-08T00:23:30.013Z,0
2017-05-08T00:24:29.128Z,0
2017-05-08T00:25:29.805Z,0
2017-05-08T00:26:29.503Z,0
2017-05-08T00:27:29.249Z,0
2017-05-08T00:28:30.197Z,0
2017-05-08T00:29:30.231Z,0
2017-05-08T00:30:29.666Z,0
2017-05-08T00:31:29.386Z,0
2017-05-08T00:32:29.719Z,0
2017-05-08T00:33:30.083Z,0
2017-05-08T00:34:29.791Z,0
2017-05-08T00:35:29.841Z,0
2017-05-08T00:36:29.553Z,0
2017-05-08T00:37:29.901Z,0
2017-05-08T00:38:29.625Z,0
2017-05-08T00:39:29.984Z,0
2017-05-08T00:40:29.717Z,0
2017-05-08T00:41:29.734Z,0
2017-05-08T00:42:30.090Z,0
2017-05-08T00:43:30.445Z,0
2017-05-08T00:44:30.144Z,0
2017-05-08T00:45:29.891Z,0
2017-05-08T00:46:29.909Z,0
2017-05-08T00:47:29.946Z,0
2017-05-08T00:48:30.618Z,0
2017-05-08T00:49:30.960Z,0
2017-05-08T00:50:30.050Z,0
2017-05-08T00:51:30.396Z,0
2017-05-08T00:52:30.122Z,0
2017-05-08T00:53:30.474Z,0
2017-05-08T00:54:30.509Z,0
2017-05-08T00:55:30.866Z,0
2017-05-08T00:56:30.883Z,0
2017-05-08T00:57:30.366Z,0
2017-05-08T00:58:30.647Z,0
2017-05-08T00:59:30.386Z,0
2017-05-08T01:00:30.411Z,0
2017-05-08T01:01:30.750Z,0
2017-05-08T01:02:30.802Z,0
2017-05-08T01:03:30.824Z,0
2017-05-08T01:04:31.188Z,0
2017-05-08T01:05:31.215Z,0
2017-05-08T01:06:31.251Z,0
2017-05-08T01:07:31.329Z,0
2017-05-08T01:08:30.704Z,0
2017-05-08T01:09:30.728Z,0
2017-05-08T01:10:30.780Z,0
2017-05-08T01:11:31.103Z,0
2017-05-08T01:12:30.833Z,0
2017-05-08T01:13:30.882Z,0
2017-05-08T01:14:30.919Z,0
2017-05-08T01:15:31.572Z,0
2017-05-08T01:16:30.978Z,0
2017-05-08T01:17:31.336Z,0
2017-05-08T01:18:31.657Z,0
2017-05-08T01:19:31.697Z,0
2017-05-08T01:20:31.446Z,0
2017-05-08T01:21:31.164Z,0
2017-05-08T01:22:31.802Z,0
2017-05-08T01:23:31.533Z,0
2017-05-08T01:24:31.571Z,0
2017-05-08T01:25:31.312Z,0
2017-05-08T01:26:31.335Z,0
2017-05-08T01:27:31.378Z,0
2017-05-08T01:28:31.714Z,0
2017-05-08T01:29:31.763Z,0
2017-05-08T01:30:31.779Z,0
2017-05-08T01:31:31.818Z,0
2017-05-08T01:32:31.871Z,0
2017-05-08T01:33:32.210Z,0
2017-05-08T01:34:31.927Z,0
2017-05-08T01:35:31.958Z,0
2017-05-08T01:36:31.701Z,0
2017-05-08T01:37:32.043Z,0
2017-05-08T01:38:32.389Z,0
2017-05-08T01:39:32.109Z,0
2017-05-08T01:40:31.837Z,0
2017-05-08T01:41:31.861Z,0
2017-05-08T01:42:32.220Z,0
2017-05-08T01:43:32.260Z,0
2017-05-08T01:44:31.977Z,0
2017-05-08T01:45:32.004Z,0
2017-05-08T01:46:32.083Z,0
2017-05-08T01:47:32.410Z,0
2017-05-08T01:48:32.763Z,0
2017-05-08T01:49:32.809Z,0
2017-05-08T01:50:32.177Z,0
2017-05-08T01:51:32.230Z,0
2017-05-08T01:52:32.566Z,0
2017-05-08T01:53:32.288Z,0
2017-05-08T01:54:32.639Z,0
2017-05-08T01:55:32.670Z,0
2017-05-08T01:56:32.710Z,0
2017-05-08T01:57:33.855Z,0
2017-05-08T01:58:33.097Z,0
2017-05-08T01:59:33.122Z,0
2017-05-08T02:00:32.543Z,0
2017-05-08T02:01:32.889Z,0
2017-05-08T02:02:32.609Z,0
2017-05-08T02:03:32.956Z,0
2017-05-08T02:04:32.991Z,0
2017-05-08T02:05:32.716Z,0
2017-05-08T02:06:32.967Z,0
2017-05-08T02:07:32.799Z,0
2017-05-08T02:08:33.755Z,0
2017-05-08T02:09:33.485Z,0
2017-05-08T02:10:32.891Z,0
2017-05-08T02:11:33.240Z,0
2017-05-08T02:12:33.272Z,0
2017-05-08T02:13:33.623Z,0
2017-05-08T02:14:33.048Z,0
2017-05-08T02:15:33.381Z,0
2017-05-08T02:16:33.105Z,0
2017-05-08T02:17:33.458Z,0
2017-05-08T02:18:33.178Z,0
2017-05-08T02:19:33.371Z,0
2017-05-08T02:20:33.570Z,0
2017-05-08T02:21:33.908Z,0
2017-05-08T02:22:33.325Z,0
2017-05-08T02:23:33.677Z,0
2017-05-08T02:24:33.702Z,0
2017-05-08T02:25:33.425Z,0
2017-05-08T02:26:33.482Z,0
2017-05-08T02:27:33.499Z,0
2017-05-08T02:28:33.851Z,0
2017-05-08T02:29:33.614Z,0
2017-05-08T02:30:33.920Z,0
2017-05-08T02:31:33.645Z,0
2017-05-08T02:32:33.990Z,0
2017-05-08T02:33:33.712Z,0
2017-05-08T02:34:34.061Z,0
2017-05-08T02:35:33.784Z,0
2017-05-08T02:36:33.832Z,0
2017-05-08T02:37:34.208Z,0
2017-05-08T02:38:33.897Z,0
2017-05-08T02:39:34.858Z,0
2017-05-08T02:40:34.583Z,0
2017-05-08T02:41:34.314Z,0
2017-05-08T02:42:34.651Z,0
2017-05-08T02:43:34.387Z,0
2017-05-08T02:44:34.413Z,0
2017-05-08T02:45:34.451Z,0
2017-05-08T02:46:34.175Z,0
2017-05-08T02:47:34.525Z,0
2017-05-08T02:48:34.246Z,0
2017-05-08T02:49:34.925Z,0
2017-05-08T02:50:34.315Z,0
2017-05-08T02:51:34.357Z,0
2017-05-08T02:52:34.698Z,4
2017-05-08T02:53:34.740Z,4
2017-05-08T02:54:34.505Z,0
2017-05-08T02:55:34.497Z,4
2017-05-08T02:56:34.533Z,4
2017-05-08T02:57:34.580Z,8
2017-05-08T02:58:35.215Z,4
2017-05-08T02:59:34.958Z,8
2017-05-08T03:00:34.979Z,8
2017-05-08T03:01:34.711Z,8
2017-05-08T03:02:35.053Z,8
2017-05-08T03:03:35.092Z,8
2017-05-08T03:04:35.126Z,12
2017-05-08T03:05:35.776Z,16
2017-05-08T03:06:35.193Z,16
2017-05-08T03:07:35.547Z,20
2017-05-08T03:08:35.572Z,20
2017-05-08T03:09:35.610Z,28
2017-05-08T03:10:35.385Z,28
2017-05-08T03:11:35.065Z,32
2017-05-08T03:12:35.405Z,36
2017-05-08T03:13:36.054Z,40
2017-05-08T03:14:35.163Z,48
2017-05-08T03:15:35.198Z,52
2017-05-08T03:16:35.241Z,60
2017-05-08T03:17:35.268Z,68
2017-05-08T03:18:35.958Z,76
2017-05-08T03:19:35.646Z,84
2017-05-08T03:20:35.692Z,96
2017-05-08T03:21:35.418Z,104
2017-05-08T03:22:35.453Z,112
2017-05-08T03:23:35.787Z,120
2017-05-08T03:24:36.139Z,124
2017-05-08T03:25:35.860Z,132
2017-05-08T03:26:35.900Z,136
2017-05-08T03:27:35.623Z,144
2017-05-08T03:28:35.662Z,156
2017-05-08T03:29:36.008Z,164
2017-05-08T03:30:35.728Z,172
2017-05-08T03:31:36.075Z,180
2017-05-08T03:32:36.106Z,192
2017-05-08T03:33:35.855Z,204
2017-05-08T03:34:36.176Z,220
2017-05-08T03:35:35.910Z,240
2017-05-08T03:36:36.553Z,260
2017-05-08T03:37:35.983Z,280
2017-05-08T03:38:36.321Z,300
2017-05-08T03:39:36.363Z,320
2017-05-08T03:40:41.903Z,340
2017-05-08T03:41:36.426Z,364
2017-05-08T03:42:36.153Z,388
2017-05-08T03:43:36.815Z,420
2017-05-08T03:44:36.542Z,452
2017-05-08T03:45:36.264Z,492
2017-05-08T03:46:36.292Z,536
2017-05-08T03:47:36.326Z,576
2017-05-08T03:48:36.677Z,616
2017-05-08T03:49:36.404Z,656
2017-05-08T03:50:36.438Z,700
2017-05-08T03:51:36.476Z,756
2017-05-08T03:52:36.513Z,832
2017-05-08T03:53:36.537Z,928
2017-05-08T03:54:36.573Z,1040
2017-05-08T03:55:36.613Z,1160
2017-05-08T03:56:36.957Z,1260
2017-05-08T03:57:36.687Z,1360
2017-05-08T03:58:36.722Z,1464
2017-05-08T03:59:36.753Z,1548
2017-05-08T04:00:36.785Z,1620
2017-05-08T04:01:36.825Z,1672
2017-05-08T04:02:37.170Z,1716
2017-05-08T04:03:37.202Z,1764
2017-05-08T04:04:37.244Z,1840
2017-05-08T04:05:36.968Z,1924
2017-05-08T04:06:37.004Z,1992
2017-05-08T04:07:37.034Z,2028
2017-05-08T04:08:37.696Z,2064
2017-05-08T04:09:37.107Z,2152
2017-05-08T04:10:37.147Z,2240
2017-05-08T04:11:37.490Z,2260
2017-05-08T04:12:37.538Z,2184
2017-05-08T04:13:37.578Z,2096
2017-05-08T04:14:37.285Z,2112
2017-05-08T04:15:37.637Z,2128
2017-05-08T04:16:37.358Z,2068
2017-05-08T04:17:37.395Z,2044
2017-05-08T04:18:37.756Z,2044
2017-05-08T04:19:38.081Z,1992
2017-05-08T04:20:37.505Z,1836
2017-05-08T04:21:38.162Z,1748
2017-05-08T04:22:38.195Z,1732
2017-05-08T04:23:38.229Z,1652
2017-05-08T04:24:37.957Z,1520
2017-05-08T04:25:37.990Z,1388
2017-05-08T04:26:38.025Z,1280
2017-05-08T04:27:38.069Z,1212
2017-05-08T04:28:38.099Z,1200
2017-05-08T04:29:37.831Z,1204
2017-05-08T04:30:38.396Z,1200
2017-05-08T04:31:38.210Z,1236
2017-05-08T04:32:37.946Z,1376
2017-05-08T04:33:38.281Z,1492
2017-05-08T04:34:38.014Z,1608
2017-05-08T04:35:38.348Z,1692
2017-05-08T04:36:38.079Z,1768
2017-05-08T04:37:38.732Z,1832
2017-05-08T04:38:38.454Z,1844
2017-05-08T04:39:38.179Z,1880
2017-05-08T04:40:38.219Z,2040
2017-05-08T04:41:38.260Z,2128
2017-05-08T04:42:38.606Z,2112
2017-05-08T04:43:38.636Z,2092
2017-05-08T04:44:38.676Z,2116
2017-05-08T04:45:38.704Z,2212
2017-05-08T04:46:39.057Z,2376
2017-05-08T04:47:38.784Z,2696
2017-05-08T04:48:39.122Z,3092
2017-05-08T04:49:38.540Z,3240
2017-05-08T04:50:38.935Z,3324
2017-05-08T04:51:38.924Z,3492
2017-05-08T04:52:39.586Z,3524
2017-05-08T04:53:38.691Z,3480
2017-05-08T04:54:39.036Z,3172
2017-05-08T04:55:39.070Z,2820
2017-05-08T04:56:38.801Z,2584
2017-05-08T04:57:39.142Z,2384
2017-05-08T04:58:38.867Z,2356
2017-05-08T04:59:38.903Z,2420
2017-05-08T05:00:39.256Z,2448
2017-05-08T05:01:38.971Z,2404
2017-05-08T05:02:39.631Z,2388
2017-05-08T05:03:39.667Z,2424
2017-05-08T05:04:39.088Z,2676
2017-05-08T05:05:39.734Z,3136
2017-05-08T05:06:39.189Z,3632
2017-05-08T05:07:39.538Z,3972
2017-05-08T05:08:39.859Z,4060
2017-05-08T05:09:39.572Z,4080
2017-05-08T05:10:39.605Z,4228
2017-05-08T05:11:39.343Z,4416
2017-05-08T05:12:39.689Z,4700
2017-05-08T05:13:40.030Z,5088
2017-05-08T05:14:39.764Z,5536
2017-05-08T05:15:39.490Z,5728
2017-05-08T05:16:39.519Z,5732
2017-05-08T05:17:39.876Z,5528
2017-05-08T05:18:39.624Z,5480
2017-05-08T05:19:39.639Z,5696
2017-05-08T05:20:39.673Z,6040
2017-05-08T05:21:40.018Z,5736
2017-05-08T05:22:40.055Z,4908
2017-05-08T05:23:39.833Z,4164
2017-05-08T05:24:40.128Z,3820
2017-05-08T05:25:39.883Z,3808
2017-05-08T05:26:39.888Z,4168
2017-05-08T05:27:40.150Z,4600
2017-05-08T05:28:40.011Z,4472
2017-05-08T05:29:40.311Z,4032
2017-05-08T05:30:40.046Z,3548
2017-05-08T05:31:40.389Z,3356
2017-05-08T05:32:40.726Z,3488
2017-05-08T05:33:40.454Z,3632
2017-05-08T05:34:41.026Z,3664
2017-05-08T05:35:40.219Z,3824
2017-05-08T05:36:40.267Z,4264
2017-05-08T05:37:40.947Z,4696
2017-05-08T05:38:40.371Z,5292
2017-05-08T05:39:40.689Z,7032
2017-05-08T05:40:40.467Z,6168
2017-05-08T05:41:41.057Z,6140
2017-05-08T05:42:40.792Z,6164
2017-05-08T05:43:41.150Z,6600
2017-05-08T05:44:40.556Z,7304
2017-05-08T05:45:40.903Z,10228
2017-05-08T05:46:40.629Z,16064
2017-05-08T05:47:40.668Z,10628
2017-05-08T05:48:40.702Z,11584
2017-05-08T05:49:40.736Z,12460
2017-05-08T05:50:40.778Z,19360
2017-05-08T05:51:40.815Z,16672
2017-05-08T05:52:41.481Z,13212
2017-05-08T05:53:41.506Z,13380
2017-05-08T05:54:41.245Z,13580
2017-05-08T05:55:40.976Z,13404
2017-05-08T05:56:41.316Z,15456
2017-05-08T05:57:41.356Z,16448
2017-05-08T05:58:41.700Z,19264
2017-05-08T05:59:41.435Z,13660
2017-05-08T06:00:41.163Z,10400
2017-05-08T06:01:41.201Z,8712
2017-05-08T06:02:41.556Z,9144
2017-05-08T06:03:41.719Z,9992
2017-05-08T06:04:41.330Z,10968
2017-05-08T06:05:41.359Z,17120
2017-05-08T06:06:41.420Z,11464
2017-05-08T06:07:41.438Z,11280
2017-05-08T06:08:41.792Z,11612
2017-05-08T06:09:41.834Z,10692
2017-05-08T06:10:41.871Z,11636
2017-05-08T06:11:42.207Z,12220
2017-05-08T06:12:41.953Z,13344
2017-05-08T06:13:41.981Z,15744
2017-05-08T06:14:41.714Z,17376
2017-05-08T06:15:42.060Z,18944
2017-05-08T06:16:41.873Z,30112
2017-05-08T06:17:41.945Z,18944
2017-05-08T06:18:42.361Z,21440
2017-05-08T06:19:42.228Z,13984
2017-05-08T06:20:42.259Z,13164
2017-05-08T06:21:42.607Z,12744
2017-05-08T06:22:42.348Z,10064
2017-05-08T06:23:42.696Z,9020
2017-05-08T06:24:42.418Z,8696
2017-05-08T06:25:42.160Z,8948
2017-05-08T06:26:42.197Z,9548
2017-05-08T06:27:42.539Z,10088
2017-05-08T06:28:42.886Z,9888
2017-05-08T06:29:42.681Z,9064
2017-05-08T06:30:42.660Z,8116
2017-05-08T06:31:42.397Z,7248
2017-05-08T06:32:42.747Z,6684
2017-05-08T06:33:42.778Z,6300
2017-05-08T06:34:42.863Z,6000
2017-05-08T06:35:42.936Z,5944
2017-05-08T06:36:42.590Z,6148
2017-05-08T06:37:42.635Z,6236
2017-05-08T06:38:43.105Z,6172
2017-05-08T06:39:42.741Z,6176
2017-05-08T06:40:43.365Z,5756
2017-05-08T06:41:43.095Z,5120
2017-05-08T06:42:43.438Z,4824
2017-05-08T06:43:42.868Z,4588
2017-05-08T06:44:43.223Z,4416
2017-05-08T06:45:43.252Z,4228
2017-05-08T06:46:42.981Z,3768
2017-05-08T06:47:43.326Z,3560
2017-05-08T06:48:43.686Z,3708
2017-05-08T06:49:43.864Z,4004
2017-05-08T06:50:43.141Z,4372
2017-05-08T06:51:43.292Z,4712
2017-05-08T06:52:43.719Z,4820
2017-05-08T06:53:43.461Z,4560
2017-05-08T06:54:43.874Z,4144
2017-05-08T06:55:44.491Z,4172
2017-05-08T06:56:44.413Z,4688
2017-05-08T06:57:43.828Z,5460
2017-05-08T06:58:43.755Z,6452
2017-05-08T06:59:43.792Z,7132
2017-05-08T07:00:43.899Z,7584
2017-05-08T07:01:43.712Z,17632
2017-05-08T07:02:43.965Z,7152
2017-05-08T07:03:43.862Z,6216
2017-05-08T07:04:43.756Z,5256
2017-05-08T07:05:44.323Z,4652
2017-05-08T07:06:45.028Z,4300
2017-05-08T07:07:44.402Z,4096
2017-05-08T07:08:44.454Z,3908
2017-05-08T07:09:44.579Z,3624
2017-05-08T07:10:43.900Z,3252
2017-05-08T07:11:43.989Z,2948
2017-05-08T07:12:44.632Z,2828
2017-05-08T07:13:44.030Z,2840
2017-05-08T07:14:44.674Z,2840
2017-05-08T07:15:44.397Z,2916
2017-05-08T07:16:44.243Z,3076
2017-05-08T07:17:44.477Z,3248
2017-05-08T07:18:44.869Z,3200
2017-05-08T07:19:44.852Z,2928
2017-05-08T07:20:44.903Z,2528
2017-05-08T07:21:44.339Z,2240
2017-05-08T07:22:44.969Z,2096
2017-05-08T07:23:44.824Z,2196
2017-05-08T07:24:44.739Z,2396
2017-05-08T07:25:44.776Z,2400
2017-05-08T07:26:44.505Z,2292
2017-05-08T07:27:44.852Z,2240
2017-05-08T07:28:44.595Z,2096
2017-05-08T07:29:45.232Z,1956
2017-05-08T07:30:44.976Z,1916
2017-05-08T07:31:44.694Z,1956
2017-05-08T07:32:45.346Z,2100
2017-05-08T07:33:45.079Z,2108
2017-05-08T07:34:45.178Z,2468
2017-05-08T07:35:45.160Z,2608
2017-05-08T07:36:44.899Z,2332
2017-05-08T07:37:45.545Z,2412
2017-05-08T07:38:45.297Z,3064
2017-05-08T07:39:45.002Z,3292
2017-05-08T07:40:45.037Z,3280
2017-05-08T07:41:45.379Z,2676
2017-05-08T07:42:45.720Z,2600
2017-05-08T07:43:45.572Z,2588
2017-05-08T07:44:45.237Z,2688
2017-05-08T07:45:45.526Z,3236
2017-05-08T07:46:45.559Z,3408
2017-05-08T07:47:45.601Z,3232
2017-05-08T07:48:45.652Z,3132
2017-05-08T07:49:45.370Z,3220
2017-05-08T07:50:45.404Z,2804
2017-05-08T07:51:45.752Z,3068
2017-05-08T07:52:50.376Z,2932
2017-05-08T07:53:46.453Z,2292
2017-05-08T07:54:45.553Z,3032
2017-05-08T07:55:45.954Z,3492
2017-05-08T07:56:45.940Z,2920
2017-05-08T07:57:46.284Z,2528
2017-05-08T07:58:45.718Z,2592
2017-05-08T07:59:45.756Z,2412
2017-05-08T08:00:46.365Z,2112
2017-05-08T08:01:45.837Z,2116
2017-05-08T08:02:45.868Z,2016
2017-05-08T08:03:46.001Z,1780
2017-05-08T08:04:46.030Z,1828
2017-05-08T08:05:45.964Z,1784
2017-05-08T08:06:46.001Z,1788
2017-05-08T08:07:46.651Z,1828
2017-05-08T08:08:47.103Z,1868
2017-05-08T08:09:46.995Z,1804
2017-05-08T08:10:46.155Z,1732
2017-05-08T08:11:46.273Z,1724
2017-05-08T08:12:46.522Z,1536
2017-05-08T08:13:46.252Z,1340
2017-05-08T08:14:46.600Z,1248
2017-05-08T08:15:46.331Z,1172
2017-05-08T08:16:46.364Z,1260
2017-05-08T08:17:46.837Z,1260
2017-05-08T08:18:46.753Z,1400
2017-05-08T08:19:46.481Z,1528
2017-05-08T08:20:47.129Z,1576
2017-05-08T08:21:46.548Z,1564
2017-05-08T08:22:46.895Z,1580
2017-05-08T08:23:47.551Z,1568
2017-05-08T08:24:46.969Z,1484
2017-05-08T08:25:46.697Z,1580
2017-05-08T08:26:46.740Z,1680
2017-05-08T08:27:47.383Z,1644
2017-05-08T08:28:46.953Z,1720
2017-05-08T08:29:46.851Z,1756
2017-05-08T08:30:47.207Z,1808
2017-05-08T08:31:46.924Z,1964
2017-05-08T08:32:48.171Z,2008
2017-05-08T08:33:47.416Z,1928
2017-05-08T08:34:47.168Z,1904
2017-05-08T08:35:47.170Z,1672
2017-05-08T08:36:47.127Z,1496
2017-05-08T08:37:47.474Z,1328
2017-05-08T08:38:47.484Z,1192
2017-05-08T08:39:47.213Z,1248
2017-05-08T08:40:47.250Z,1152
2017-05-08T08:41:47.593Z,1216
2017-05-08T08:42:47.311Z,1476
2017-05-08T08:43:47.350Z,1752
2017-05-08T08:44:47.390Z,1776
2017-05-08T08:45:47.423Z,1816
2017-05-08T08:46:47.466Z,1844
2017-05-08T08:47:47.495Z,1752
2017-05-08T08:48:47.845Z,1624
2017-05-08T08:49:47.879Z,1444
2017-05-08T08:50:47.919Z,1388
2017-05-08T08:51:48.000Z,1420
2017-05-08T08:52:47.992Z,1356
2017-05-08T08:53:48.338Z,1320
2017-05-08T08:54:47.751Z,1340
2017-05-08T08:55:47.787Z,1244
2017-05-08T08:56:48.127Z,1192
2017-05-08T08:57:48.485Z,1236
2017-05-08T08:58:48.817Z,1416
2017-05-08T08:59:48.238Z,1432
2017-05-08T09:00:47.974Z,1408
2017-05-08T09:01:48.327Z,1360
2017-05-08T09:02:48.354Z,1344
2017-05-08T09:03:48.087Z,1276
2017-05-08T09:04:48.116Z,1352
2017-05-08T09:05:48.147Z,1312
2017-05-08T09:06:48.179Z,1292
2017-05-08T09:07:48.221Z,1320
2017-05-08T09:08:48.257Z,1300
2017-05-08T09:09:48.291Z,1312
2017-05-08T09:10:48.341Z,1296
2017-05-08T09:11:48.370Z,1400
2017-05-08T09:12:48.706Z,1588
2017-05-08T09:13:48.760Z,1648
2017-05-08T09:14:48.487Z,1844
2017-05-08T09:15:48.516Z,2156
2017-05-08T09:16:48.561Z,2568
2017-05-08T09:17:48.580Z,2864
2017-05-08T09:18:49.236Z,3116
2017-05-08T09:19:48.967Z,2888
2017-05-08T09:20:48.695Z,2792
2017-05-08T09:21:48.730Z,2412
2017-05-08T09:22:48.765Z,2240
2017-05-08T09:23:49.424Z,2032
2017-05-08T09:24:49.149Z,1940
2017-05-08T09:25:49.036Z,1988
2017-05-08T09:26:48.933Z,2088
2017-05-08T09:27:49.005Z,2124
2017-05-08T09:28:49.289Z,2124
2017-05-08T09:29:49.030Z,2160
2017-05-08T09:30:49.362Z,2116
2017-05-08T09:31:49.107Z,2168
2017-05-08T09:32:49.122Z,2076
2017-05-08T09:33:49.178Z,2076
2017-05-08T09:34:49.507Z,2096
2017-05-08T09:35:49.853Z,1992
2017-05-08T09:36:49.898Z,1936
2017-05-08T09:37:50.271Z,2072
2017-05-08T09:38:49.664Z,2088
2017-05-08T09:39:49.379Z,2100
2017-05-08T09:40:49.725Z,2008
2017-05-08T09:41:49.758Z,1896
2017-05-08T09:42:49.796Z,1904
2017-05-08T09:43:49.825Z,1932
2017-05-08T09:44:49.863Z,2004
2017-05-08T09:45:49.906Z,2172
2017-05-08T09:46:49.671Z,2248
2017-05-08T09:47:49.963Z,2444
2017-05-08T09:48:50.009Z,2548
2017-05-08T09:49:50.047Z,2960
2017-05-08T09:50:49.768Z,3340
2017-05-08T09:51:50.159Z,3328
2017-05-08T09:52:50.159Z,3116
2017-05-08T09:53:49.885Z,3008
2017-05-08T09:54:50.538Z,2804
2017-05-08T09:55:50.263Z,2912
2017-05-08T09:56:50.065Z,3032
2017-05-08T09:57:50.106Z,3176
2017-05-08T09:58:50.677Z,3308
2017-05-08T09:59:50.407Z,3584
2017-05-08T10:00:50.744Z,3568
2017-05-08T10:01:50.167Z,4028
2017-05-08T10:02:50.825Z,4272
2017-05-08T10:03:50.549Z,4324
2017-05-08T10:04:50.310Z,4588
2017-05-08T10:05:50.934Z,4904
2017-05-08T10:06:50.342Z,4968
2017-05-08T10:07:50.688Z,5104
2017-05-08T10:08:50.733Z,4876
2017-05-08T10:09:50.760Z,4492
2017-05-08T10:10:50.485Z,4300
2017-05-08T10:11:50.836Z,4244
2017-05-08T10:12:50.560Z,4032
2017-05-08T10:13:51.529Z,4044
2017-05-08T10:14:50.945Z,3704
2017-05-08T10:15:51.205Z,3724
2017-05-08T10:16:50.705Z,3564
2017-05-08T10:17:51.364Z,3636
2017-05-08T10:18:50.801Z,3744
2017-05-08T10:19:50.819Z,3788
2017-05-08T10:20:51.162Z,3800
2017-05-08T10:21:51.225Z,3648
2017-05-08T10:22:51.242Z,3716
2017-05-08T10:23:51.285Z,4004
2017-05-08T10:24:51.845Z,4004
2017-05-08T10:25:51.386Z,4308
2017-05-08T10:26:51.750Z,4584
2017-05-08T10:27:51.195Z,5000
2017-05-08T10:28:52.161Z,5592
2017-05-08T10:29:51.212Z,5564
2017-05-08T10:30:51.292Z,5636
2017-05-08T10:31:51.614Z,5704
2017-05-08T10:32:51.309Z,5552
2017-05-08T10:33:51.665Z,5992
2017-05-08T10:34:51.693Z,5912
2017-05-08T10:35:52.405Z,5920
2017-05-08T10:36:52.093Z,5744
2017-05-08T10:37:51.474Z,6312
2017-05-08T10:38:51.509Z,5668
2017-05-08T10:39:51.861Z,5476
2017-05-08T10:40:51.587Z,5400
2017-05-08T10:41:51.626Z,5424
2017-05-08T10:42:51.977Z,5448
2017-05-08T10:43:51.706Z,5316
2017-05-08T10:44:51.740Z,5348
2017-05-08T10:45:51.766Z,5352
2017-05-08T10:46:51.814Z,5276
2017-05-08T10:47:52.151Z,5140
2017-05-08T10:48:52.186Z,5060
2017-05-08T10:49:52.228Z,5104
2017-05-08T10:50:52.256Z,5140
2017-05-08T10:51:52.015Z,5272
2017-05-08T10:52:52.028Z,5332
2017-05-08T10:53:52.374Z,5184
2017-05-08T10:54:52.113Z,5016
2017-05-08T10:55:52.445Z,5052
2017-05-08T10:56:52.792Z,5000
2017-05-08T10:57:52.539Z,4936
2017-05-08T10:58:52.560Z,4780
2017-05-08T10:59:52.904Z,5232
2017-05-08T11:00:52.324Z,4956
2017-05-08T11:01:52.361Z,4644
2017-05-08T11:02:52.702Z,4856
2017-05-08T11:03:52.742Z,5268
2017-05-08T11:04:52.780Z,5220
2017-05-08T11:05:52.513Z,5944
2017-05-08T11:06:53.166Z,5688
2017-05-08T11:07:53.197Z,5624
2017-05-08T11:08:53.230Z,5184
2017-05-08T11:09:52.958Z,4512
2017-05-08T11:10:53.001Z,4380
2017-05-08T11:11:52.765Z,4436
2017-05-08T11:12:52.764Z,4120
2017-05-08T11:13:52.796Z,3816
2017-05-08T11:14:53.153Z,3764
2017-05-08T11:15:53.173Z,3728
2017-05-08T11:16:53.223Z,3756
2017-05-08T11:17:52.945Z,3752
2017-05-08T11:18:53.281Z,3376
2017-05-08T11:19:53.334Z,3548
2017-05-08T11:20:53.365Z,3820
2017-05-08T11:21:53.404Z,3792
2017-05-08T11:22:53.730Z,3896
2017-05-08T11:23:53.687Z,3832
2017-05-08T11:24:53.203Z,3772
2017-05-08T11:25:53.267Z,3564
2017-05-08T11:26:53.337Z,3404
2017-05-08T11:27:53.621Z,3680
2017-05-08T11:28:53.663Z,3568
2017-05-08T11:29:53.387Z,3396
2017-05-08T11:30:53.422Z,3804
2017-05-08T11:31:53.458Z,3804
2017-05-08T11:32:53.498Z,3528
2017-05-08T11:33:53.532Z,3400
2017-05-08T11:34:53.566Z,3568
2017-05-08T11:35:53.663Z,3424
2017-05-08T11:36:53.642Z,3388
2017-05-08T11:37:53.703Z,3452
2017-05-08T11:38:54.346Z,3400
2017-05-08T11:39:53.752Z,3592
2017-05-08T11:40:53.803Z,3320
2017-05-08T11:41:53.819Z,3200
2017-05-08T11:42:54.180Z,2904
2017-05-08T11:43:54.240Z,2604
2017-05-08T11:44:54.241Z,2440
2017-05-08T11:45:53.963Z,2312
2017-05-08T11:46:54.006Z,2508
2017-05-08T11:47:54.344Z,2956
2017-05-08T11:48:54.077Z,3128
2017-05-08T11:49:54.148Z,3380
2017-05-08T11:50:54.149Z,4088
2017-05-08T11:51:54.187Z,4724
2017-05-08T11:52:54.226Z,4632
2017-05-08T11:53:54.262Z,3872
2017-05-08T11:54:54.603Z,3356
2017-05-08T11:55:54.636Z,3284
2017-05-08T11:56:54.404Z,2884
2017-05-08T11:57:54.407Z,2732
2017-05-08T11:58:54.775Z,2416
2017-05-08T11:59:55.090Z,2460
2017-05-08T12:00:55.442Z,2428
2017-05-08T12:01:54.864Z,2348
2017-05-08T12:02:55.209Z,2280
2017-05-08T12:03:54.627Z,2240
2017-05-08T12:04:54.655Z,2272
2017-05-08T12:05:55.001Z,2380
2017-05-08T12:06:55.040Z,2424
2017-05-08T12:07:54.778Z,2476
2017-05-08T12:08:55.116Z,2548
2017-05-08T12:09:55.150Z,2696
2017-05-08T12:10:55.203Z,2984
2017-05-08T12:11:54.933Z,3112
2017-05-08T12:12:54.944Z,2672
2017-05-08T12:13:54.981Z,2952
2017-05-08T12:14:55.634Z,3668
2017-05-08T12:15:55.673Z,4280
2017-05-08T12:16:55.090Z,4420
2017-05-08T12:17:55.439Z,4504
2017-05-08T12:18:55.165Z,4460
2017-05-08T12:19:55.202Z,4856
2017-05-08T12:20:55.238Z,4852
2017-05-08T12:21:55.274Z,4488
2017-05-08T12:22:55.646Z,4516
2017-05-08T12:23:55.360Z,4360
2017-05-08T12:24:55.385Z,4300
2017-05-08T12:25:55.735Z,4332
2017-05-08T12:26:55.464Z,5440
2017-05-08T12:27:55.800Z,5160
2017-05-08T12:28:55.531Z,4368
2017-05-08T12:29:55.573Z,3968
2017-05-08T12:30:55.609Z,3700
2017-05-08T12:31:55.643Z,3732
2017-05-08T12:32:55.687Z,3376
2017-05-08T12:33:56.020Z,3324
2017-05-08T12:34:55.751Z,2960
2017-05-08T12:35:55.789Z,2752
2017-05-08T12:36:56.129Z,2268
2017-05-08T12:37:55.868Z,2064
2017-05-08T12:38:56.224Z,2064
2017-05-08T12:39:56.243Z,2376
2017-05-08T12:40:55.965Z,2972
2017-05-08T12:41:56.043Z,3536
2017-05-08T12:42:56.352Z,4356
2017-05-08T12:43:56.072Z,4844
2017-05-08T12:44:56.458Z,5308
2017-05-08T12:45:56.473Z,5972
2017-05-08T12:46:56.191Z,7036
2017-05-08T12:47:56.535Z,8248
2017-05-08T12:48:56.259Z,9332
2017-05-08T12:49:56.297Z,8516
2017-05-08T12:50:56.641Z,8532
2017-05-08T12:51:56.374Z,7564
2017-05-08T12:52:56.412Z,7800
2017-05-08T12:53:56.444Z,8036
2017-05-08T12:54:56.486Z,7504
2017-05-08T12:55:56.515Z,6408
2017-05-08T12:56:56.552Z,5484
2017-05-08T12:57:56.896Z,4916
2017-05-08T12:58:56.665Z,4388
2017-05-08T12:59:56.665Z,4432
2017-05-08T13:00:56.701Z,5248
2017-05-08T13:01:57.048Z,5096
2017-05-08T13:02:57.095Z,5160
2017-05-08T13:03:56.810Z,5688
2017-05-08T13:04:56.850Z,5452
2017-05-08T13:05:57.190Z,5764
2017-05-08T13:06:57.844Z,4896
2017-05-08T13:07:56.956Z,4936
2017-05-08T13:08:56.996Z,5400
2017-05-08T13:09:57.042Z,5192
2017-05-08T13:10:57.392Z,4844
2017-05-08T13:11:57.414Z,4672
2017-05-08T13:12:57.801Z,4592
2017-05-08T13:13:57.186Z,4756
2017-05-08T13:14:58.137Z,5088
2017-05-08T13:15:57.257Z,4308
2017-05-08T13:16:57.597Z,4708
2017-05-08T13:17:57.327Z,4460
2017-05-08T13:18:57.363Z,4496
2017-05-08T13:19:58.026Z,3588
2017-05-08T13:20:57.444Z,3388
2017-05-08T13:21:57.880Z,3688
2017-05-08T13:22:57.820Z,4356
2017-05-08T13:23:57.547Z,3820
2017-05-08T13:24:57.893Z,2924
2017-05-08T13:25:57.930Z,3272
2017-05-08T13:26:57.665Z,2748
2017-05-08T13:27:57.707Z,2888
2017-05-08T13:28:58.044Z,2760
2017-05-08T13:29:57.773Z,2708
2017-05-08T13:30:57.811Z,2872
2017-05-08T13:31:58.154Z,2720
2017-05-08T13:32:58.201Z,3652
2017-05-08T13:33:57.924Z,3836
2017-05-08T13:34:58.264Z,3296
2017-05-08T13:35:57.990Z,2300
2017-05-08T13:36:58.027Z,2008
2017-05-08T13:37:58.394Z,1980